WMT8154 GCTS-LROP
Flight info
| Callsign | WMT8154 |
|---|---|
| Flight time | 4h 58m |
| Altitude | 36000 |
| Route | KORAL UG5 SONSO DCT NIRAL UN871 OSDAM UM985 BARPA DCT XAVIR DCT PIMOS DCT RIXUR DCT UNTOS DCT ROLAS DCT TOSGA DCT RESTU DCT ALT DCT SUMMO DCT MITOS DCT BRUNO DCT RUXET DCT IZA DCT TUKRO DCT ASMOT DCT PTC DCT MHN DCT MORSS DCT BAVON DCT ORKUM DCT ELSAG DCT ALG DCT ROMPO DCT RUXOP DCT BATOX DCT PEMAR/N0425F380 DCT XOLTA/N0425F370 DCT NERRA DCT BUNEX DCT BAJUN DCT NISVA DCT SOMOV DCT SORDU |
| Aircraft | A21N/M-SDE1E2E3FGIJ1J4RWXY/LB1 |
Departure
| Time | 2026-05-07 12:33 |
|---|---|
| Airport | Tenerife Sur Airport (GCTS) |
Arrival
| Time | 2026-05-07 17:31 |
|---|---|
| Airport | Bucharest Henri Coandă International Airport (LROP) |
| Time | Latitude | Longitude | Altitude | Speed | Heading |
|---|---|---|---|---|---|
| 2026-05-07 11:45 | 28.04508 | -16.57857 | 210 ft | 0 kts | 337° |
| 2026-05-07 11:47 | 28.04507 | -16.57857 | 210 ft | 0 kts | 337° |
| 2026-05-07 11:58 | 28.04506 | -16.57857 | 216 ft | 0 kts | 337° |
| 2026-05-07 12:05 | 28.04506 | -16.57856 | 210 ft | 0 kts | 337° |
| 2026-05-07 12:07 | 28.04505 | -16.57856 | 210 ft | 0 kts | 337° |
| 2026-05-07 12:20 | 28.04504 | -16.57856 | 209 ft | 0 kts | 337° |
| 2026-05-07 12:24 | 28.04504 | -16.57855 | 209 ft | 2 kts | 337° |
| 2026-05-07 12:24 | 28.04481 | -16.57844 | 212 ft | 4 kts | 336° |
| 2026-05-07 12:24 | 28.04459 | -16.57833 | 209 ft | 4 kts | 324° |
| 2026-05-07 12:24 | 28.04447 | -16.57813 | 212 ft | 4 kts | 263° |
| 2026-05-07 12:25 | 28.04453 | -16.57791 | 210 ft | 0 kts | 249° |
| 2026-05-07 12:28 | 28.04448 | -16.57805 | 210 ft | 3 kts | 249° |
| 2026-05-07 12:28 | 28.04437 | -16.57838 | 209 ft | 6 kts | 248° |
| 2026-05-07 12:29 | 28.04419 | -16.57888 | 215 ft | 8 kts | 248° |
| 2026-05-07 12:29 | 28.04397 | -16.57952 | 214 ft | 10 kts | 248° |
| 2026-05-07 12:29 | 28.04370 | -16.58027 | 214 ft | 11 kts | 248° |
| 2026-05-07 12:29 | 28.04337 | -16.58116 | 209 ft | 13 kts | 243° |
| 2026-05-07 12:30 | 28.04293 | -16.58217 | 207 ft | 15 kts | 246° |
| 2026-05-07 12:30 | 28.04252 | -16.58331 | 206 ft | 16 kts | 250° |
| 2026-05-07 12:30 | 28.04211 | -16.58453 | 210 ft | 11 kts | 249° |
| 2026-05-07 12:30 | 28.04186 | -16.58538 | 213 ft | 12 kts | 257° |
| 2026-05-07 12:31 | 28.04158 | -16.58633 | 212 ft | 13 kts | 246° |
| 2026-05-07 12:31 | 28.04121 | -16.58735 | 205 ft | 15 kts | 249° |
| 2026-05-07 12:31 | 28.04085 | -16.58842 | 208 ft | 11 kts | 241° |
| 2026-05-07 12:31 | 28.04016 | -16.58876 | 203 ft | 12 kts | 163° |
| 2026-05-07 12:32 | 28.03964 | -16.58794 | 208 ft | 14 kts | 107° |
| 2026-05-07 12:32 | 28.03946 | -16.58692 | 205 ft | 13 kts | 82° |
| 2026-05-07 12:32 | 28.03980 | -16.58591 | 208 ft | 15 kts | 68° |
| 2026-05-07 12:32 | 28.04048 | -16.58389 | 210 ft | 58 kts | 68° |
| 2026-05-07 12:33 | 28.04661 | -16.56640 | 382 ft | 156 kts | 68° |
| 2026-05-07 12:33 | 28.05062 | -16.55508 | 1018 ft | 153 kts | 71° |
| 2026-05-07 12:33 | 28.05427 | -16.54352 | 1574 ft | 161 kts | 68° |
| 2026-05-07 12:34 | 28.05885 | -16.53090 | 1956 ft | 185 kts | 67° |
| 2026-05-07 12:34 | 28.06396 | -16.51642 | 2407 ft | 212 kts | 68° |
| 2026-05-07 12:34 | 28.06978 | -16.49979 | 2779 ft | 240 kts | 68° |
| 2026-05-07 12:34 | 28.07617 | -16.48146 | 3297 ft | 259 kts | 68° |
| 2026-05-07 12:35 | 28.08293 | -16.46193 | 4016 ft | 272 kts | 68° |
| 2026-05-07 12:35 | 28.08757 | -16.44086 | 4808 ft | 281 kts | 82° |
| 2026-05-07 12:35 | 28.08926 | -16.41903 | 5689 ft | 281 kts | 85° |
| 2026-05-07 12:35 | 28.09069 | -16.39671 | 6554 ft | 284 kts | 84° |
| 2026-05-07 12:36 | 28.09216 | -16.37414 | 7267 ft | 290 kts | 84° |
| 2026-05-07 12:36 | 28.09373 | -16.35124 | 7985 ft | 295 kts | 84° |
| 2026-05-07 12:36 | 28.09540 | -16.32782 | 8723 ft | 299 kts | 85° |
| 2026-05-07 12:36 | 28.09710 | -16.30415 | 9472 ft | 303 kts | 85° |
| 2026-05-07 12:37 | 28.09884 | -16.28011 | 10117 ft | 311 kts | 85° |
| 2026-05-07 12:37 | 28.10065 | -16.25501 | 10481 ft | 327 kts | 85° |
| 2026-05-07 12:37 | 28.10257 | -16.22865 | 10817 ft | 343 kts | 85° |
| 2026-05-07 12:37 | 28.10456 | -16.20119 | 11265 ft | 354 kts | 85° |
| 2026-05-07 12:38 | 28.10656 | -16.17308 | 11889 ft | 359 kts | 85° |
| 2026-05-07 12:38 | 28.10858 | -16.14509 | 12601 ft | 362 kts | 85° |
| 2026-05-07 12:38 | 28.11064 | -16.11646 | 13254 ft | 367 kts | 86° |
| 2026-05-07 12:38 | 28.11272 | -16.08731 | 13872 ft | 372 kts | 86° |
| 2026-05-07 12:39 | 28.11481 | -16.05785 | 14428 ft | 377 kts | 86° |
| 2026-05-07 12:39 | 28.11685 | -16.02802 | 14986 ft | 382 kts | 86° |
| 2026-05-07 12:39 | 28.12262 | -15.99859 | 15526 ft | 386 kts | 68° |
| 2026-05-07 12:39 | 28.13502 | -15.97136 | 16078 ft | 390 kts | 58° |
| 2026-05-07 12:40 | 28.14906 | -15.94527 | 16630 ft | 394 kts | 57° |
| 2026-05-07 12:40 | 28.16326 | -15.91832 | 17177 ft | 399 kts | 58° |
| 2026-05-07 12:40 | 28.17716 | -15.89089 | 17731 ft | 404 kts | 59° |
| 2026-05-07 12:40 | 28.19099 | -15.86294 | 18268 ft | 408 kts | 59° |
| 2026-05-07 12:41 | 28.20485 | -15.83458 | 18761 ft | 412 kts | 60° |
| 2026-05-07 12:41 | 28.21877 | -15.80605 | 19257 ft | 416 kts | 60° |
| 2026-05-07 12:41 | 28.23284 | -15.77719 | 19748 ft | 419 kts | 60° |
| 2026-05-07 12:41 | 28.24682 | -15.74845 | 20244 ft | 422 kts | 60° |
| 2026-05-07 12:42 | 28.26127 | -15.71876 | 20739 ft | 425 kts | 60° |
| 2026-05-07 12:42 | 28.27542 | -15.68966 | 21215 ft | 429 kts | 60° |
| 2026-05-07 12:42 | 28.28993 | -15.65984 | 21703 ft | 432 kts | 60° |
| 2026-05-07 12:42 | 28.30446 | -15.62996 | 22178 ft | 435 kts | 60° |
| 2026-05-07 12:43 | 28.31914 | -15.59973 | 22651 ft | 438 kts | 60° |
| 2026-05-07 12:43 | 28.33398 | -15.56911 | 23115 ft | 442 kts | 60° |
| 2026-05-07 12:43 | 28.34885 | -15.53841 | 23581 ft | 445 kts | 60° |
| 2026-05-07 12:43 | 28.36378 | -15.50757 | 23963 ft | 448 kts | 60° |
| 2026-05-07 12:44 | 28.37885 | -15.47644 | 24353 ft | 450 kts | 60° |
| 2026-05-07 12:44 | 28.39381 | -15.44549 | 24738 ft | 453 kts | 60° |
| 2026-05-07 12:44 | 28.40903 | -15.41397 | 25116 ft | 455 kts | 59° |
| 2026-05-07 12:44 | 28.42430 | -15.38229 | 25487 ft | 458 kts | 59° |
| 2026-05-07 12:45 | 28.43968 | -15.35041 | 25865 ft | 460 kts | 59° |
| 2026-05-07 12:45 | 28.45509 | -15.31844 | 26222 ft | 463 kts | 59° |
| 2026-05-07 12:45 | 28.47062 | -15.28617 | 26578 ft | 465 kts | 59° |
| 2026-05-07 12:45 | 28.48600 | -15.25422 | 26924 ft | 467 kts | 59° |
| 2026-05-07 12:46 | 28.50149 | -15.22201 | 27282 ft | 469 kts | 59° |
| 2026-05-07 12:46 | 28.51733 | -15.18905 | 27626 ft | 472 kts | 59° |
| 2026-05-07 12:46 | 28.53315 | -15.15614 | 27963 ft | 474 kts | 59° |
| 2026-05-07 12:46 | 28.54899 | -15.12313 | 28299 ft | 476 kts | 59° |
| 2026-05-07 12:47 | 28.56481 | -15.09009 | 28630 ft | 478 kts | 59° |
| 2026-05-07 12:47 | 28.58085 | -15.05659 | 28952 ft | 480 kts | 59° |
| 2026-05-07 12:47 | 28.59669 | -15.02348 | 29261 ft | 482 kts | 59° |
| 2026-05-07 12:47 | 28.61274 | -14.98986 | 29561 ft | 484 kts | 59° |
| 2026-05-07 12:48 | 28.62887 | -14.95598 | 29853 ft | 486 kts | 59° |
| 2026-05-07 12:48 | 28.64500 | -14.92206 | 30143 ft | 488 kts | 59° |
| 2026-05-07 12:48 | 28.66134 | -14.88795 | 30386 ft | 490 kts | 59° |
| 2026-05-07 12:48 | 28.67756 | -14.85406 | 30638 ft | 492 kts | 59° |
| 2026-05-07 12:49 | 28.69397 | -14.81966 | 30882 ft | 493 kts | 59° |
| 2026-05-07 12:49 | 28.71026 | -14.78544 | 31120 ft | 495 kts | 59° |
| 2026-05-07 12:49 | 28.72675 | -14.75072 | 31343 ft | 497 kts | 59° |
| 2026-05-07 12:49 | 28.74322 | -14.71604 | 31556 ft | 498 kts | 59° |
| 2026-05-07 12:50 | 28.75982 | -14.68104 | 31778 ft | 500 kts | 59° |
| 2026-05-07 12:50 | 28.77620 | -14.64645 | 31997 ft | 501 kts | 59° |
| 2026-05-07 12:50 | 28.79283 | -14.61136 | 32229 ft | 501 kts | 58° |
| 2026-05-07 12:50 | 28.80945 | -14.57623 | 32499 ft | 501 kts | 59° |
| 2026-05-07 12:51 | 28.82574 | -14.54163 | 32779 ft | 500 kts | 58° |
| 2026-05-07 12:51 | 28.84223 | -14.50663 | 33001 ft | 500 kts | 58° |
| 2026-05-07 12:51 | 28.85876 | -14.47170 | 33259 ft | 499 kts | 58° |
| 2026-05-07 12:51 | 28.87526 | -14.43683 | 33495 ft | 499 kts | 58° |
| 2026-05-07 12:52 | 28.89174 | -14.40193 | 33732 ft | 498 kts | 58° |
| 2026-05-07 12:52 | 28.90813 | -14.36714 | 33965 ft | 498 kts | 58° |
| 2026-05-07 12:52 | 28.92453 | -14.33228 | 34166 ft | 497 kts | 58° |
| 2026-05-07 12:52 | 28.94093 | -14.29739 | 34349 ft | 497 kts | 58° |
| 2026-05-07 12:53 | 28.95730 | -14.26256 | 34531 ft | 496 kts | 58° |
| 2026-05-07 12:53 | 28.97360 | -14.22781 | 34700 ft | 496 kts | 58° |
| 2026-05-07 12:53 | 28.98969 | -14.19346 | 34864 ft | 496 kts | 58° |
| 2026-05-07 12:53 | 29.00605 | -14.15856 | 35030 ft | 495 kts | 58° |
| 2026-05-07 12:54 | 29.02232 | -14.12380 | 35200 ft | 495 kts | 58° |
| 2026-05-07 12:54 | 29.03855 | -14.08902 | 35391 ft | 494 kts | 58° |
| 2026-05-07 12:54 | 29.05445 | -14.05485 | 35543 ft | 493 kts | 58° |
| 2026-05-07 12:54 | 29.07062 | -14.02027 | 35690 ft | 493 kts | 57° |
| 2026-05-07 12:55 | 29.08703 | -13.98519 | 35834 ft | 493 kts | 57° |
| 2026-05-07 12:55 | 29.10317 | -13.95061 | 35980 ft | 492 kts | 57° |
| 2026-05-07 12:55 | 29.13508 | -13.88204 | 36071 ft | 490 kts | 57° |
| 2026-05-07 12:56 | 29.16717 | -13.81294 | 36047 ft | 490 kts | 57° |
| 2026-05-07 12:56 | 29.19378 | -13.75555 | 36031 ft | 490 kts | 57° |
| 2026-05-07 12:57 | 29.22574 | -13.68658 | 36031 ft | 490 kts | 57° |
| 2026-05-07 12:57 | 29.25765 | -13.61759 | 36034 ft | 489 kts | 58° |
| 2026-05-07 12:58 | 29.28951 | -13.54853 | 36031 ft | 489 kts | 58° |
| 2026-05-07 12:58 | 29.32133 | -13.47941 | 36038 ft | 489 kts | 58° |
| 2026-05-07 12:59 | 29.35308 | -13.41043 | 36037 ft | 488 kts | 58° |
| 2026-05-07 12:59 | 29.38454 | -13.34193 | 36028 ft | 488 kts | 58° |
| 2026-05-07 13:00 | 29.41613 | -13.27297 | 36030 ft | 488 kts | 58° |
| 2026-05-07 13:00 | 29.44770 | -13.20403 | 36034 ft | 488 kts | 58° |
| 2026-05-07 13:01 | 29.47925 | -13.13497 | 36032 ft | 487 kts | 58° |
| 2026-05-07 13:01 | 29.51068 | -13.06597 | 36027 ft | 487 kts | 58° |
| 2026-05-07 13:02 | 29.54183 | -12.99754 | 36027 ft | 486 kts | 58° |
| 2026-05-07 13:02 | 29.57314 | -12.92860 | 36025 ft | 486 kts | 58° |
| 2026-05-07 13:03 | 29.60437 | -12.85954 | 36024 ft | 486 kts | 58° |
| 2026-05-07 13:03 | 29.63544 | -12.79096 | 36021 ft | 486 kts | 58° |
| 2026-05-07 13:04 | 29.66674 | -12.72182 | 36026 ft | 485 kts | 58° |
| 2026-05-07 13:04 | 29.69769 | -12.65332 | 36026 ft | 485 kts | 58° |
| 2026-05-07 13:05 | 29.72894 | -12.58452 | 36020 ft | 483 kts | 56° |
| 2026-05-07 13:05 | 29.76575 | -12.52012 | 36020 ft | 480 kts | 51° |
| 2026-05-07 13:06 | 29.80351 | -12.45660 | 36023 ft | 479 kts | 51° |
| 2026-05-07 13:06 | 29.84110 | -12.39302 | 36021 ft | 479 kts | 51° |
| 2026-05-07 13:07 | 29.87833 | -12.32979 | 36026 ft | 479 kts | 51° |
| 2026-05-07 13:07 | 29.91589 | -12.26605 | 36019 ft | 479 kts | 51° |
| 2026-05-07 13:08 | 29.95332 | -12.20244 | 36021 ft | 479 kts | 52° |
| 2026-05-07 13:08 | 29.99070 | -12.13876 | 36021 ft | 479 kts | 52° |
| 2026-05-07 13:09 | 30.03212 | -12.07922 | 36019 ft | 472 kts | 40° |
| 2026-05-07 13:09 | 30.07900 | -12.02699 | 36020 ft | 471 kts | 39° |
| 2026-05-07 13:10 | 30.12658 | -11.97418 | 36017 ft | 471 kts | 39° |
| 2026-05-07 13:10 | 30.17351 | -11.92166 | 36015 ft | 471 kts | 39° |
| 2026-05-07 13:11 | 30.22067 | -11.86872 | 36016 ft | 472 kts | 39° |
| 2026-05-07 13:11 | 30.26765 | -11.81586 | 36014 ft | 472 kts | 39° |
| 2026-05-07 13:12 | 30.31473 | -11.76288 | 36021 ft | 472 kts | 39° |
| 2026-05-07 13:12 | 30.36178 | -11.70985 | 36013 ft | 472 kts | 40° |
| 2026-05-07 13:13 | 30.40852 | -11.65698 | 36013 ft | 472 kts | 40° |
| 2026-05-07 13:13 | 30.45553 | -11.60384 | 36001 ft | 472 kts | 39° |
| 2026-05-07 13:14 | 30.50269 | -11.55062 | 36010 ft | 472 kts | 40° |
| 2026-05-07 13:14 | 30.54943 | -11.49762 | 35995 ft | 472 kts | 40° |
| 2026-05-07 13:15 | 30.59653 | -11.44418 | 36006 ft | 472 kts | 40° |
| 2026-05-07 13:15 | 30.64356 | -11.39069 | 36001 ft | 472 kts | 40° |
| 2026-05-07 13:16 | 30.69061 | -11.33707 | 36002 ft | 473 kts | 40° |
| 2026-05-07 13:16 | 30.73728 | -11.28396 | 36000 ft | 473 kts | 40° |
| 2026-05-07 13:17 | 30.78443 | -11.23012 | 36005 ft | 473 kts | 40° |
| 2026-05-07 13:17 | 30.83140 | -11.17640 | 36002 ft | 473 kts | 40° |
| 2026-05-07 13:18 | 30.87810 | -11.12295 | 36001 ft | 473 kts | 40° |
| 2026-05-07 13:18 | 30.92503 | -11.06915 | 36005 ft | 473 kts | 40° |
| 2026-05-07 13:19 | 30.97202 | -11.01519 | 35999 ft | 473 kts | 40° |
| 2026-05-07 13:19 | 31.01864 | -10.96157 | 35999 ft | 473 kts | 40° |
| 2026-05-07 13:20 | 31.06557 | -10.90750 | 35997 ft | 473 kts | 40° |
| 2026-05-07 13:20 | 31.11235 | -10.85359 | 35996 ft | 473 kts | 40° |
| 2026-05-07 13:21 | 31.15902 | -10.79969 | 35994 ft | 473 kts | 40° |
| 2026-05-07 13:21 | 31.20586 | -10.74550 | 35993 ft | 473 kts | 40° |
| 2026-05-07 13:22 | 31.25235 | -10.69163 | 35988 ft | 473 kts | 40° |
| 2026-05-07 13:22 | 31.29940 | -10.63705 | 35988 ft | 473 kts | 40° |
| 2026-05-07 13:23 | 31.34592 | -10.58297 | 35987 ft | 473 kts | 40° |
| 2026-05-07 13:23 | 31.39278 | -10.52845 | 35981 ft | 474 kts | 40° |
| 2026-05-07 13:24 | 31.43923 | -10.47430 | 35985 ft | 474 kts | 40° |
| 2026-05-07 13:24 | 31.48616 | -10.41961 | 35987 ft | 474 kts | 40° |
| 2026-05-07 13:25 | 31.53285 | -10.36502 | 35985 ft | 474 kts | 41° |
| 2026-05-07 13:25 | 31.57933 | -10.31059 | 35986 ft | 474 kts | 41° |
| 2026-05-07 13:26 | 31.62600 | -10.25584 | 35983 ft | 474 kts | 41° |
| 2026-05-07 13:26 | 31.67275 | -10.20093 | 35980 ft | 474 kts | 41° |
| 2026-05-07 13:27 | 31.71938 | -10.14607 | 35982 ft | 474 kts | 41° |
| 2026-05-07 13:27 | 31.76588 | -10.09138 | 35981 ft | 475 kts | 41° |
| 2026-05-07 13:28 | 31.81247 | -10.03649 | 35980 ft | 475 kts | 41° |
| 2026-05-07 13:28 | 31.85905 | -9.98145 | 35977 ft | 475 kts | 41° |
| 2026-05-07 13:29 | 31.90575 | -9.92619 | 35977 ft | 475 kts | 41° |
| 2026-05-07 13:29 | 31.95234 | -9.87093 | 35975 ft | 475 kts | 41° |
| 2026-05-07 13:30 | 31.99876 | -9.81583 | 35977 ft | 475 kts | 41° |
| 2026-05-07 13:30 | 32.04541 | -9.76049 | 35973 ft | 475 kts | 41° |
| 2026-05-07 13:31 | 32.09223 | -9.70472 | 35973 ft | 475 kts | 41° |
| 2026-05-07 13:31 | 32.13857 | -9.64950 | 35972 ft | 476 kts | 41° |
| 2026-05-07 13:32 | 32.17731 | -9.60328 | 35968 ft | 476 kts | 41° |
| 2026-05-07 13:32 | 32.23143 | -9.53849 | 35965 ft | 476 kts | 41° |
| 2026-05-07 13:33 | 32.27789 | -9.48274 | 35969 ft | 475 kts | 41° |
| 2026-05-07 13:33 | 32.31659 | -9.43635 | 35966 ft | 475 kts | 41° |
| 2026-05-07 13:34 | 32.38629 | -9.35264 | 35964 ft | 475 kts | 41° |
| 2026-05-07 13:35 | 32.43246 | -9.29715 | 35960 ft | 475 kts | 41° |
| 2026-05-07 13:35 | 32.47895 | -9.24113 | 35963 ft | 475 kts | 41° |
| 2026-05-07 13:36 | 32.52506 | -9.18543 | 35964 ft | 475 kts | 41° |
| 2026-05-07 13:36 | 32.57142 | -9.12938 | 35962 ft | 476 kts | 41° |
| 2026-05-07 13:37 | 32.61783 | -9.07311 | 35963 ft | 476 kts | 41° |
| 2026-05-07 13:37 | 32.66385 | -9.01727 | 35961 ft | 476 kts | 41° |
| 2026-05-07 13:38 | 32.71012 | -8.96110 | 35965 ft | 476 kts | 41° |
| 2026-05-07 13:38 | 32.75641 | -8.90476 | 35965 ft | 476 kts | 41° |
| 2026-05-07 13:39 | 32.80247 | -8.84859 | 35965 ft | 476 kts | 41° |
| 2026-05-07 13:39 | 32.84870 | -8.79213 | 35964 ft | 476 kts | 41° |
| 2026-05-07 13:40 | 32.89494 | -8.73559 | 35962 ft | 476 kts | 41° |
| 2026-05-07 13:40 | 32.94115 | -8.67898 | 35967 ft | 476 kts | 41° |
| 2026-05-07 13:41 | 32.98727 | -8.62242 | 35956 ft | 476 kts | 41° |
| 2026-05-07 13:41 | 33.03350 | -8.56562 | 35967 ft | 476 kts | 41° |
| 2026-05-07 13:42 | 33.07933 | -8.50919 | 35964 ft | 476 kts | 41° |
| 2026-05-07 13:42 | 33.12549 | -8.45228 | 35969 ft | 476 kts | 41° |
| 2026-05-07 13:43 | 33.17165 | -8.39529 | 35972 ft | 476 kts | 41° |
| 2026-05-07 13:43 | 33.22186 | -8.34569 | 35972 ft | 467 kts | 27° |
| 2026-05-07 13:44 | 33.27703 | -8.30449 | 35968 ft | 467 kts | 26° |
| 2026-05-07 13:44 | 33.33212 | -8.26335 | 35970 ft | 467 kts | 26° |
| 2026-05-07 13:45 | 33.38727 | -8.22181 | 35967 ft | 467 kts | 27° |
| 2026-05-07 13:45 | 33.44202 | -8.18043 | 35970 ft | 467 kts | 27° |
| 2026-05-07 13:46 | 33.49722 | -8.13865 | 35975 ft | 467 kts | 27° |
| 2026-05-07 13:46 | 33.55197 | -8.09712 | 35975 ft | 467 kts | 27° |
| 2026-05-07 13:47 | 33.60697 | -8.05537 | 35971 ft | 467 kts | 27° |
| 2026-05-07 13:47 | 33.66207 | -8.01346 | 35970 ft | 467 kts | 26° |
| 2026-05-07 13:48 | 33.71672 | -7.97184 | 35969 ft | 467 kts | 26° |
| 2026-05-07 13:48 | 33.77178 | -7.92988 | 35969 ft | 467 kts | 27° |
| 2026-05-07 13:49 | 33.82636 | -7.88819 | 35972 ft | 467 kts | 27° |
| 2026-05-07 13:49 | 33.88133 | -7.84618 | 35971 ft | 468 kts | 26° |
| 2026-05-07 13:50 | 33.93628 | -7.80409 | 35974 ft | 468 kts | 26° |
| 2026-05-07 13:50 | 33.99112 | -7.76201 | 35969 ft | 468 kts | 26° |
| 2026-05-07 13:51 | 34.04615 | -7.71970 | 35979 ft | 468 kts | 26° |
| 2026-05-07 13:51 | 34.10110 | -7.67737 | 35963 ft | 468 kts | 26° |
| 2026-05-07 13:52 | 34.15601 | -7.63505 | 35968 ft | 468 kts | 26° |
| 2026-05-07 13:52 | 34.21059 | -7.59293 | 35972 ft | 468 kts | 26° |
| 2026-05-07 13:53 | 34.26563 | -7.55039 | 35973 ft | 469 kts | 26° |
| 2026-05-07 13:53 | 34.32028 | -7.50804 | 35973 ft | 469 kts | 26° |
| 2026-05-07 13:54 | 34.37529 | -7.46535 | 35973 ft | 469 kts | 26° |
| 2026-05-07 13:54 | 34.43025 | -7.42265 | 35969 ft | 469 kts | 26° |
| 2026-05-07 13:55 | 34.48491 | -7.38013 | 35968 ft | 468 kts | 26° |
| 2026-05-07 13:55 | 34.53993 | -7.33722 | 35967 ft | 468 kts | 26° |
| 2026-05-07 13:56 | 34.59450 | -7.29462 | 35968 ft | 468 kts | 26° |
| 2026-05-07 13:56 | 34.64926 | -7.25183 | 35963 ft | 468 kts | 26° |
| 2026-05-07 13:57 | 34.70372 | -7.20914 | 35961 ft | 468 kts | 26° |
| 2026-05-07 13:57 | 34.75847 | -7.16622 | 35964 ft | 467 kts | 26° |
| 2026-05-07 13:58 | 34.81321 | -7.12324 | 35962 ft | 467 kts | 26° |
| 2026-05-07 13:58 | 34.86769 | -7.08043 | 35966 ft | 468 kts | 26° |
| 2026-05-07 13:59 | 34.92245 | -7.03727 | 35963 ft | 468 kts | 26° |
| 2026-05-07 13:59 | 34.97710 | -6.99404 | 35959 ft | 468 kts | 26° |
| 2026-05-07 14:00 | 35.03173 | -6.95087 | 35961 ft | 468 kts | 26° |
| 2026-05-07 14:00 | 35.08638 | -6.90758 | 35962 ft | 468 kts | 26° |
| 2026-05-07 14:01 | 35.14081 | -6.86439 | 35960 ft | 468 kts | 26° |
| 2026-05-07 14:01 | 35.19547 | -6.82104 | 35962 ft | 468 kts | 26° |
| 2026-05-07 14:02 | 35.25021 | -6.77747 | 35961 ft | 468 kts | 26° |
| 2026-05-07 14:02 | 35.30439 | -6.73424 | 35959 ft | 468 kts | 26° |
| 2026-05-07 14:03 | 35.35412 | -6.68129 | 35956 ft | 484 kts | 46° |
| 2026-05-07 14:03 | 35.39010 | -6.61034 | 35926 ft | 491 kts | 56° |
| 2026-05-07 14:04 | 35.42393 | -6.53751 | 35959 ft | 492 kts | 55° |
| 2026-05-07 14:04 | 35.45866 | -6.46600 | 35964 ft | 491 kts | 53° |
| 2026-05-07 14:05 | 35.49487 | -6.39473 | 35957 ft | 490 kts | 53° |
| 2026-05-07 14:05 | 35.53086 | -6.32362 | 35958 ft | 491 kts | 53° |
| 2026-05-07 14:06 | 35.56653 | -6.25297 | 35957 ft | 491 kts | 53° |
| 2026-05-07 14:06 | 35.60259 | -6.18123 | 35947 ft | 491 kts | 53° |
| 2026-05-07 14:07 | 35.63860 | -6.10976 | 35946 ft | 490 kts | 53° |
| 2026-05-07 14:07 | 35.67456 | -6.03837 | 35940 ft | 490 kts | 53° |
| 2026-05-07 14:08 | 35.71046 | -5.96671 | 35937 ft | 490 kts | 53° |
| 2026-05-07 14:08 | 35.74444 | -5.89363 | 35934 ft | 494 kts | 59° |
| 2026-05-07 14:09 | 35.77419 | -5.81788 | 35936 ft | 494 kts | 60° |
| 2026-05-07 14:09 | 35.80398 | -5.74158 | 35944 ft | 494 kts | 60° |
| 2026-05-07 14:10 | 35.83388 | -5.66524 | 35932 ft | 494 kts | 59° |
| 2026-05-07 14:10 | 35.86434 | -5.58974 | 35935 ft | 493 kts | 58° |
| 2026-05-07 14:11 | 35.89514 | -5.51398 | 35946 ft | 493 kts | 59° |
| 2026-05-07 14:11 | 35.92575 | -5.43816 | 35944 ft | 493 kts | 59° |
| 2026-05-07 14:12 | 35.95620 | -5.36260 | 35942 ft | 493 kts | 59° |
| 2026-05-07 14:12 | 35.98670 | -5.28667 | 35933 ft | 494 kts | 59° |
| 2026-05-07 14:13 | 36.01767 | -5.21092 | 35943 ft | 493 kts | 58° |
| 2026-05-07 14:13 | 36.04392 | -5.14833 | 35917 ft | 493 kts | 57° |
| 2026-05-07 14:14 | 36.08058 | -5.06082 | 35915 ft | 492 kts | 57° |
| 2026-05-07 14:14 | 36.10698 | -4.99760 | 35921 ft | 492 kts | 57° |
| 2026-05-07 14:15 | 36.13823 | -4.92285 | 35926 ft | 492 kts | 56° |
| 2026-05-07 14:15 | 36.15661 | -4.88688 | 35921 ft | 484 kts | 45° |
| 2026-05-07 14:15 | 36.17861 | -4.85589 | 35929 ft | 478 kts | 39° |
| 2026-05-07 14:16 | 36.22470 | -4.79729 | 35930 ft | 477 kts | 38° |
| 2026-05-07 14:16 | 36.27085 | -4.73818 | 36187 ft | 474 kts | 39° |
| 2026-05-07 14:16 | 36.29357 | -4.70875 | 36521 ft | 468 kts | 39° |
| 2026-05-07 14:17 | 36.31612 | -4.67955 | 36736 ft | 467 kts | 39° |
| 2026-05-07 14:17 | 36.33858 | -4.65054 | 36622 ft | 474 kts | 39° |
| 2026-05-07 14:17 | 36.36161 | -4.62077 | 36420 ft | 478 kts | 39° |
| 2026-05-07 14:17 | 36.38464 | -4.59085 | 36191 ft | 479 kts | 39° |
| 2026-05-07 14:18 | 36.40775 | -4.56077 | 35955 ft | 478 kts | 39° |
| 2026-05-07 14:18 | 36.45337 | -4.50137 | 35907 ft | 478 kts | 39° |
| 2026-05-07 14:19 | 36.49936 | -4.44130 | 35938 ft | 478 kts | 39° |
| 2026-05-07 14:19 | 36.54500 | -4.38160 | 35936 ft | 478 kts | 39° |
| 2026-05-07 14:20 | 36.59102 | -4.32141 | 35942 ft | 478 kts | 39° |
| 2026-05-07 14:20 | 36.63673 | -4.26158 | 35936 ft | 478 kts | 39° |
| 2026-05-07 14:21 | 36.68256 | -4.20132 | 35938 ft | 478 kts | 39° |
| 2026-05-07 14:21 | 36.72853 | -4.14082 | 35945 ft | 479 kts | 39° |
| 2026-05-07 14:22 | 36.77417 | -4.08077 | 35951 ft | 479 kts | 39° |
| 2026-05-07 14:22 | 36.82019 | -4.02007 | 35949 ft | 480 kts | 39° |
| 2026-05-07 14:23 | 36.86584 | -3.95975 | 35950 ft | 480 kts | 39° |
| 2026-05-07 14:23 | 36.91176 | -3.89891 | 35929 ft | 480 kts | 39° |
| 2026-05-07 14:24 | 36.95763 | -3.83802 | 35932 ft | 481 kts | 39° |
| 2026-05-07 14:24 | 37.00339 | -3.77720 | 35939 ft | 482 kts | 39° |
| 2026-05-07 14:25 | 37.04933 | -3.71593 | 35937 ft | 481 kts | 39° |
| 2026-05-07 14:25 | 37.09506 | -3.65440 | 35935 ft | 483 kts | 41° |
| 2026-05-07 14:25 | 37.11519 | -3.62001 | 35930 ft | 494 kts | 53° |
| 2026-05-07 14:26 | 37.13123 | -3.58224 | 35943 ft | 498 kts | 57° |
| 2026-05-07 14:26 | 37.16158 | -3.50393 | 35939 ft | 499 kts | 58° |
| 2026-05-07 14:27 | 37.19220 | -3.42575 | 35940 ft | 498 kts | 57° |
| 2026-05-07 14:27 | 37.22274 | -3.34834 | 35940 ft | 497 kts | 57° |
| 2026-05-07 14:28 | 37.25341 | -3.27043 | 35939 ft | 497 kts | 58° |
| 2026-05-07 14:28 | 37.28379 | -3.19277 | 35946 ft | 497 kts | 58° |
| 2026-05-07 14:29 | 37.31429 | -3.11477 | 35946 ft | 496 kts | 58° |
| 2026-05-07 14:29 | 37.34471 | -3.03684 | 35944 ft | 496 kts | 58° |
| 2026-05-07 14:30 | 37.37500 | -2.95898 | 35949 ft | 495 kts | 58° |
| 2026-05-07 14:30 | 37.40523 | -2.88111 | 35947 ft | 495 kts | 58° |
| 2026-05-07 14:31 | 37.43538 | -2.80319 | 35937 ft | 494 kts | 58° |
| 2026-05-07 14:31 | 37.46529 | -2.72577 | 35942 ft | 494 kts | 58° |
| 2026-05-07 14:32 | 37.49530 | -2.64772 | 35941 ft | 493 kts | 59° |
| 2026-05-07 14:32 | 37.52508 | -2.57017 | 35942 ft | 493 kts | 59° |
| 2026-05-07 14:33 | 37.55491 | -2.49234 | 35938 ft | 492 kts | 59° |
| 2026-05-07 14:33 | 37.58470 | -2.41444 | 35935 ft | 492 kts | 59° |
| 2026-05-07 14:34 | 37.61419 | -2.33704 | 35937 ft | 491 kts | 59° |
| 2026-05-07 14:34 | 37.64377 | -2.25924 | 35948 ft | 490 kts | 60° |
| 2026-05-07 14:35 | 37.67319 | -2.18175 | 35939 ft | 489 kts | 60° |
| 2026-05-07 14:35 | 37.70258 | -2.10421 | 35936 ft | 488 kts | 60° |
| 2026-05-07 14:36 | 37.73168 | -2.02713 | 35948 ft | 488 kts | 61° |
| 2026-05-07 14:36 | 37.76094 | -1.94952 | 35932 ft | 488 kts | 61° |
| 2026-05-07 14:37 | 37.79011 | -1.87208 | 35933 ft | 487 kts | 61° |
| 2026-05-07 14:37 | 37.83355 | -1.75604 | 35933 ft | 487 kts | 62° |
| 2026-05-07 14:38 | 37.86265 | -1.67826 | 35927 ft | 487 kts | 62° |
| 2026-05-07 14:38 | 37.89141 | -1.60105 | 35934 ft | 487 kts | 62° |
| 2026-05-07 14:39 | 37.92025 | -1.52313 | 35930 ft | 487 kts | 62° |
| 2026-05-07 14:39 | 37.94912 | -1.44513 | 35931 ft | 487 kts | 63° |
| 2026-05-07 14:40 | 37.97777 | -1.36772 | 35930 ft | 487 kts | 63° |
| 2026-05-07 14:40 | 38.00659 | -1.28964 | 35937 ft | 487 kts | 63° |
| 2026-05-07 14:41 | 38.03528 | -1.21151 | 35936 ft | 487 kts | 63° |
| 2026-05-07 14:41 | 38.06374 | -1.13402 | 35934 ft | 487 kts | 64° |
| 2026-05-07 14:42 | 38.09225 | -1.05600 | 35930 ft | 486 kts | 64° |
| 2026-05-07 14:42 | 38.12071 | -0.97793 | 35925 ft | 486 kts | 64° |
| 2026-05-07 14:43 | 38.14889 | -0.90045 | 35913 ft | 485 kts | 65° |
| 2026-05-07 14:43 | 38.17723 | -0.82234 | 35913 ft | 485 kts | 65° |
| 2026-05-07 14:44 | 38.20549 | -0.74431 | 35907 ft | 485 kts | 65° |
| 2026-05-07 14:44 | 38.23369 | -0.66614 | 35907 ft | 485 kts | 65° |
| 2026-05-07 14:45 | 38.26170 | -0.58843 | 35908 ft | 486 kts | 66° |
| 2026-05-07 14:45 | 38.28790 | -0.50902 | 35908 ft | 486 kts | 69° |
| 2026-05-07 14:46 | 38.31327 | -0.42947 | 35905 ft | 485 kts | 69° |
| 2026-05-07 14:46 | 38.33869 | -0.34977 | 35902 ft | 485 kts | 69° |
| 2026-05-07 14:47 | 38.36415 | -0.27027 | 35912 ft | 486 kts | 68° |
| 2026-05-07 14:47 | 38.39063 | -0.19074 | 35897 ft | 486 kts | 69° |
| 2026-05-07 14:48 | 38.41685 | -0.11186 | 35910 ft | 486 kts | 69° |
| 2026-05-07 14:48 | 38.44321 | -0.03227 | 35920 ft | 486 kts | 69° |
| 2026-05-07 14:49 | 38.46910 | 0.04725 | 35920 ft | 486 kts | 70° |
| 2026-05-07 14:49 | 38.49457 | 0.12686 | 35916 ft | 486 kts | 70° |
| 2026-05-07 14:50 | 38.52023 | 0.20687 | 35917 ft | 486 kts | 70° |
| 2026-05-07 14:50 | 38.54588 | 0.28704 | 35916 ft | 487 kts | 70° |
| 2026-05-07 14:51 | 38.57145 | 0.36733 | 35917 ft | 487 kts | 71° |
| 2026-05-07 14:51 | 38.59679 | 0.44718 | 35913 ft | 487 kts | 71° |
| 2026-05-07 14:52 | 38.62225 | 0.52759 | 35912 ft | 487 kts | 71° |
| 2026-05-07 14:52 | 38.64765 | 0.60798 | 35909 ft | 487 kts | 71° |
| 2026-05-07 14:53 | 38.67282 | 0.68796 | 35913 ft | 486 kts | 71° |
| 2026-05-07 14:53 | 38.69811 | 0.76843 | 35915 ft | 487 kts | 71° |
| 2026-05-07 14:54 | 38.71907 | 0.83538 | 35910 ft | 487 kts | 71° |
| 2026-05-07 14:54 | 38.74424 | 0.91607 | 35909 ft | 487 kts | 72° |
| 2026-05-07 14:55 | 38.76937 | 0.99676 | 35907 ft | 488 kts | 72° |
| 2026-05-07 14:55 | 38.79447 | 1.07756 | 35910 ft | 488 kts | 72° |
| 2026-05-07 14:56 | 38.81940 | 1.15815 | 35916 ft | 489 kts | 72° |
| 2026-05-07 14:56 | 38.84455 | 1.23956 | 35908 ft | 489 kts | 72° |
| 2026-05-07 14:57 | 38.86956 | 1.32085 | 35910 ft | 490 kts | 72° |
| 2026-05-07 14:57 | 38.89438 | 1.40190 | 35908 ft | 490 kts | 73° |
| 2026-05-07 14:58 | 38.91931 | 1.48345 | 35902 ft | 490 kts | 73° |
| 2026-05-07 14:58 | 38.94363 | 1.56564 | 35906 ft | 490 kts | 74° |
| 2026-05-07 14:59 | 38.96771 | 1.64755 | 35909 ft | 490 kts | 74° |
| 2026-05-07 14:59 | 38.99172 | 1.72937 | 35910 ft | 491 kts | 74° |
| 2026-05-07 15:00 | 39.01572 | 1.81125 | 35908 ft | 491 kts | 74° |
| 2026-05-07 15:00 | 39.03975 | 1.89355 | 35909 ft | 491 kts | 74° |
| 2026-05-07 15:01 | 39.06362 | 1.97542 | 35911 ft | 491 kts | 74° |
| 2026-05-07 15:01 | 39.08760 | 2.05812 | 35904 ft | 492 kts | 74° |
| 2026-05-07 15:02 | 39.11155 | 2.14090 | 35920 ft | 492 kts | 74° |
| 2026-05-07 15:02 | 39.13543 | 2.22366 | 35906 ft | 492 kts | 74° |
| 2026-05-07 15:03 | 39.15907 | 2.30584 | 35911 ft | 492 kts | 74° |
| 2026-05-07 15:03 | 39.18285 | 2.38890 | 35909 ft | 492 kts | 74° |
| 2026-05-07 15:04 | 39.20643 | 2.47136 | 35910 ft | 492 kts | 74° |
| 2026-05-07 15:04 | 39.23008 | 2.55440 | 35911 ft | 492 kts | 74° |
| 2026-05-07 15:05 | 39.25351 | 2.63696 | 35909 ft | 492 kts | 74° |
| 2026-05-07 15:05 | 39.27683 | 2.71952 | 35909 ft | 491 kts | 74° |
| 2026-05-07 15:06 | 39.30039 | 2.80290 | 35919 ft | 491 kts | 74° |
| 2026-05-07 15:06 | 39.32370 | 2.88555 | 35920 ft | 490 kts | 74° |
| 2026-05-07 15:07 | 39.34699 | 2.96853 | 35920 ft | 490 kts | 74° |
| 2026-05-07 15:07 | 39.37020 | 3.05151 | 35918 ft | 490 kts | 74° |
| 2026-05-07 15:08 | 39.39314 | 3.13390 | 35921 ft | 490 kts | 74° |
| 2026-05-07 15:08 | 39.41618 | 3.21684 | 35915 ft | 490 kts | 74° |
| 2026-05-07 15:09 | 39.44532 | 3.29694 | 35925 ft | 495 kts | 62° |
| 2026-05-07 15:09 | 39.48083 | 3.37344 | 35923 ft | 495 kts | 61° |
| 2026-05-07 15:10 | 39.51626 | 3.45001 | 35921 ft | 494 kts | 62° |
| 2026-05-07 15:10 | 39.55117 | 3.52624 | 35918 ft | 494 kts | 62° |
| 2026-05-07 15:11 | 39.58627 | 3.60307 | 35923 ft | 494 kts | 62° |
| 2026-05-07 15:11 | 39.62138 | 3.68000 | 35926 ft | 494 kts | 62° |
| 2026-05-07 15:12 | 39.65613 | 3.75640 | 35928 ft | 494 kts | 62° |
| 2026-05-07 15:12 | 39.69094 | 3.83322 | 35927 ft | 494 kts | 62° |
| 2026-05-07 15:13 | 39.72590 | 3.91035 | 35937 ft | 494 kts | 62° |
| 2026-05-07 15:13 | 39.76081 | 3.98765 | 35949 ft | 494 kts | 62° |
| 2026-05-07 15:14 | 39.79539 | 4.06441 | 35956 ft | 495 kts | 62° |
| 2026-05-07 15:14 | 39.83006 | 4.14162 | 35963 ft | 495 kts | 62° |
| 2026-05-07 15:15 | 39.86315 | 4.22020 | 35954 ft | 491 kts | 71° |
| 2026-05-07 15:15 | 39.88264 | 4.30484 | 35965 ft | 487 kts | 80° |
| 2026-05-07 15:16 | 39.89972 | 4.38972 | 35954 ft | 488 kts | 79° |
| 2026-05-07 15:16 | 39.91733 | 4.47541 | 35952 ft | 488 kts | 79° |
| 2026-05-07 15:17 | 39.93499 | 4.56105 | 35942 ft | 489 kts | 79° |
| 2026-05-07 15:17 | 39.95247 | 4.64634 | 35938 ft | 490 kts | 79° |
| 2026-05-07 15:18 | 39.97153 | 4.73194 | 35938 ft | 491 kts | 77° |
| 2026-05-07 15:18 | 39.99119 | 4.81763 | 35937 ft | 491 kts | 78° |
| 2026-05-07 15:19 | 40.01069 | 4.90321 | 35939 ft | 492 kts | 78° |
| 2026-05-07 15:19 | 40.03003 | 4.98844 | 35935 ft | 492 kts | 78° |
| 2026-05-07 15:20 | 40.04940 | 5.07412 | 35938 ft | 492 kts | 78° |
| 2026-05-07 15:20 | 40.06877 | 5.16007 | 35941 ft | 492 kts | 78° |
| 2026-05-07 15:21 | 40.08792 | 5.24539 | 35940 ft | 492 kts | 78° |
| 2026-05-07 15:21 | 40.10717 | 5.33153 | 35939 ft | 492 kts | 78° |
| 2026-05-07 15:22 | 40.12629 | 5.41753 | 35937 ft | 492 kts | 78° |
| 2026-05-07 15:22 | 40.14538 | 5.50368 | 35942 ft | 492 kts | 78° |
| 2026-05-07 15:23 | 40.16419 | 5.58910 | 35940 ft | 493 kts | 78° |
| 2026-05-07 15:23 | 40.18310 | 5.67546 | 35942 ft | 493 kts | 78° |
| 2026-05-07 15:24 | 40.20199 | 5.76166 | 35941 ft | 493 kts | 78° |
| 2026-05-07 15:24 | 40.22095 | 5.84792 | 35941 ft | 493 kts | 78° |
| 2026-05-07 15:25 | 40.23967 | 5.93390 | 35940 ft | 493 kts | 78° |
| 2026-05-07 15:25 | 40.25838 | 6.02036 | 35939 ft | 492 kts | 78° |
| 2026-05-07 15:26 | 40.27690 | 6.10625 | 35936 ft | 492 kts | 78° |
| 2026-05-07 15:26 | 40.29551 | 6.19277 | 35941 ft | 492 kts | 78° |
| 2026-05-07 15:27 | 40.31397 | 6.27913 | 35941 ft | 492 kts | 78° |
| 2026-05-07 15:27 | 40.33239 | 6.36553 | 35946 ft | 492 kts | 78° |
| 2026-05-07 15:28 | 40.35066 | 6.45147 | 35944 ft | 492 kts | 78° |
| 2026-05-07 15:28 | 40.36896 | 6.53828 | 35941 ft | 493 kts | 78° |
| 2026-05-07 15:29 | 40.38710 | 6.62447 | 35939 ft | 493 kts | 78° |
| 2026-05-07 15:29 | 40.40538 | 6.71141 | 35942 ft | 493 kts | 78° |
| 2026-05-07 15:30 | 40.42352 | 6.79831 | 35943 ft | 494 kts | 78° |
| 2026-05-07 15:30 | 40.44165 | 6.88548 | 35932 ft | 494 kts | 78° |
| 2026-05-07 15:31 | 40.45965 | 6.97232 | 35941 ft | 494 kts | 78° |
| 2026-05-07 15:31 | 40.47769 | 7.05983 | 35933 ft | 495 kts | 78° |
| 2026-05-07 15:32 | 40.49555 | 7.14672 | 35937 ft | 495 kts | 78° |
| 2026-05-07 15:32 | 40.51347 | 7.23428 | 35934 ft | 495 kts | 78° |
| 2026-05-07 15:33 | 40.53121 | 7.32142 | 35935 ft | 496 kts | 78° |
| 2026-05-07 15:33 | 40.54899 | 7.40910 | 35937 ft | 496 kts | 78° |
| 2026-05-07 15:34 | 40.56322 | 7.48238 | 35936 ft | 495 kts | 83° |
| 2026-05-07 15:34 | 40.57182 | 7.57226 | 35933 ft | 492 kts | 88° |
| 2026-05-07 15:35 | 40.57937 | 7.66176 | 35930 ft | 493 kts | 88° |
| 2026-05-07 15:35 | 40.58707 | 7.75116 | 35933 ft | 494 kts | 88° |
| 2026-05-07 15:36 | 40.59469 | 7.84078 | 35934 ft | 495 kts | 88° |
| 2026-05-07 15:36 | 40.60225 | 7.93102 | 35931 ft | 495 kts | 88° |
| 2026-05-07 15:37 | 40.60976 | 8.02129 | 35931 ft | 496 kts | 88° |
| 2026-05-07 15:37 | 40.61727 | 8.11179 | 35930 ft | 497 kts | 88° |
| 2026-05-07 15:38 | 40.62469 | 8.20182 | 35937 ft | 497 kts | 88° |
| 2026-05-07 15:38 | 40.64210 | 8.29051 | 35937 ft | 505 kts | 70° |
| 2026-05-07 15:39 | 40.66952 | 8.37596 | 35936 ft | 507 kts | 69° |
| 2026-05-07 15:39 | 40.69688 | 8.46197 | 35937 ft | 507 kts | 69° |
| 2026-05-07 15:40 | 40.72402 | 8.54796 | 35937 ft | 508 kts | 69° |
| 2026-05-07 15:40 | 40.75087 | 8.63368 | 35934 ft | 509 kts | 69° |
| 2026-05-07 15:41 | 40.77795 | 8.72046 | 35922 ft | 510 kts | 69° |
| 2026-05-07 15:41 | 40.80487 | 8.80707 | 35932 ft | 510 kts | 69° |
| 2026-05-07 15:42 | 40.83165 | 8.89344 | 35932 ft | 510 kts | 69° |
| 2026-05-07 15:42 | 40.85838 | 8.98030 | 35936 ft | 510 kts | 69° |
| 2026-05-07 15:43 | 40.88525 | 9.06745 | 35941 ft | 511 kts | 69° |
| 2026-05-07 15:43 | 40.91218 | 9.15480 | 35949 ft | 512 kts | 69° |
| 2026-05-07 15:44 | 40.93872 | 9.24143 | 35955 ft | 512 kts | 69° |
| 2026-05-07 15:44 | 40.96547 | 9.32912 | 35962 ft | 512 kts | 69° |
| 2026-05-07 15:45 | 40.99193 | 9.41615 | 35956 ft | 512 kts | 69° |
| 2026-05-07 15:45 | 41.01854 | 9.50389 | 35959 ft | 513 kts | 69° |
| 2026-05-07 15:46 | 41.05815 | 9.63524 | 35960 ft | 513 kts | 69° |
| 2026-05-07 15:47 | 41.08459 | 9.72322 | 35960 ft | 514 kts | 69° |
| 2026-05-07 15:47 | 41.11094 | 9.81140 | 35959 ft | 515 kts | 69° |
| 2026-05-07 15:48 | 41.13701 | 9.90010 | 35958 ft | 515 kts | 70° |
| 2026-05-07 15:48 | 41.16297 | 9.98847 | 35965 ft | 516 kts | 70° |
| 2026-05-07 15:49 | 41.18919 | 10.07718 | 35966 ft | 516 kts | 69° |
| 2026-05-07 15:49 | 41.21581 | 10.16610 | 35964 ft | 517 kts | 68° |
| 2026-05-07 15:50 | 41.24308 | 10.25399 | 35967 ft | 517 kts | 68° |
| 2026-05-07 15:50 | 41.27063 | 10.34282 | 35964 ft | 518 kts | 68° |
| 2026-05-07 15:51 | 41.29800 | 10.43152 | 35963 ft | 518 kts | 68° |
| 2026-05-07 15:51 | 41.32540 | 10.52046 | 35960 ft | 519 kts | 68° |
| 2026-05-07 15:52 | 41.35254 | 10.60891 | 35965 ft | 519 kts | 68° |
| 2026-05-07 15:52 | 41.37987 | 10.69827 | 35974 ft | 519 kts | 68° |
| 2026-05-07 15:53 | 41.40706 | 10.78758 | 35968 ft | 519 kts | 68° |
| 2026-05-07 15:53 | 41.43403 | 10.87638 | 35964 ft | 520 kts | 68° |
| 2026-05-07 15:54 | 41.46116 | 10.96597 | 35966 ft | 520 kts | 68° |
| 2026-05-07 15:54 | 41.48823 | 11.05570 | 35966 ft | 521 kts | 68° |
| 2026-05-07 15:55 | 41.51511 | 11.14512 | 35964 ft | 521 kts | 68° |
| 2026-05-07 15:55 | 41.54207 | 11.23517 | 35970 ft | 521 kts | 69° |
| 2026-05-07 15:56 | 41.56898 | 11.32530 | 35966 ft | 522 kts | 69° |
| 2026-05-07 15:56 | 41.59570 | 11.41504 | 35970 ft | 522 kts | 69° |
| 2026-05-07 15:57 | 41.62250 | 11.50543 | 35969 ft | 522 kts | 69° |
| 2026-05-07 15:57 | 41.64911 | 11.59549 | 35962 ft | 523 kts | 69° |
| 2026-05-07 15:58 | 41.67584 | 11.68619 | 35962 ft | 523 kts | 69° |
| 2026-05-07 15:58 | 41.70248 | 11.77700 | 35960 ft | 523 kts | 69° |
| 2026-05-07 15:59 | 41.72889 | 11.86734 | 35949 ft | 523 kts | 69° |
| 2026-05-07 15:59 | 41.75534 | 11.95819 | 35948 ft | 523 kts | 69° |
| 2026-05-07 16:00 | 41.78175 | 12.04915 | 35939 ft | 523 kts | 69° |
| 2026-05-07 16:00 | 41.80794 | 12.13974 | 35935 ft | 523 kts | 69° |
| 2026-05-07 16:01 | 41.83428 | 12.23106 | 35936 ft | 523 kts | 68° |
| 2026-05-07 16:01 | 41.86031 | 12.32170 | 35937 ft | 523 kts | 68° |
| 2026-05-07 16:02 | 41.88649 | 12.41312 | 35933 ft | 523 kts | 68° |
| 2026-05-07 16:02 | 41.91255 | 12.50444 | 35941 ft | 523 kts | 68° |
| 2026-05-07 16:03 | 41.93831 | 12.59514 | 35936 ft | 523 kts | 68° |
| 2026-05-07 16:03 | 41.96421 | 12.68658 | 35929 ft | 522 kts | 69° |
| 2026-05-07 16:04 | 41.99006 | 12.77815 | 35948 ft | 523 kts | 68° |
| 2026-05-07 16:04 | 42.01567 | 12.86929 | 35948 ft | 523 kts | 68° |
| 2026-05-07 16:05 | 42.04034 | 12.96130 | 35950 ft | 522 kts | 70° |
| 2026-05-07 16:05 | 42.06329 | 13.05231 | 35963 ft | 521 kts | 70° |
| 2026-05-07 16:06 | 42.08645 | 13.14452 | 35944 ft | 520 kts | 71° |
| 2026-05-07 16:06 | 42.10945 | 13.23636 | 35952 ft | 520 kts | 70° |
| 2026-05-07 16:07 | 42.13250 | 13.32876 | 35977 ft | 520 kts | 70° |
| 2026-05-07 16:07 | 42.15542 | 13.42109 | 35975 ft | 520 kts | 70° |
| 2026-05-07 16:08 | 42.17840 | 13.51390 | 35966 ft | 519 kts | 71° |
| 2026-05-07 16:08 | 42.20105 | 13.60584 | 35987 ft | 519 kts | 71° |
| 2026-05-07 16:09 | 42.22378 | 13.69855 | 35992 ft | 518 kts | 71° |
| 2026-05-07 16:09 | 42.24621 | 13.79037 | 35993 ft | 517 kts | 71° |
| 2026-05-07 16:10 | 42.26877 | 13.88282 | 35978 ft | 517 kts | 71° |
| 2026-05-07 16:10 | 42.29125 | 13.97546 | 35989 ft | 517 kts | 71° |
| 2026-05-07 16:11 | 42.30980 | 14.05225 | 35994 ft | 516 kts | 71° |
| 2026-05-07 16:11 | 42.33565 | 14.15966 | 36001 ft | 516 kts | 71° |
| 2026-05-07 16:12 | 42.35416 | 14.23694 | 35988 ft | 515 kts | 71° |
| 2026-05-07 16:12 | 42.37601 | 14.32853 | 35996 ft | 514 kts | 71° |
| 2026-05-07 16:13 | 42.39784 | 14.42032 | 35994 ft | 513 kts | 71° |
| 2026-05-07 16:13 | 42.41953 | 14.51196 | 35989 ft | 512 kts | 71° |
| 2026-05-07 16:14 | 42.44123 | 14.60381 | 35988 ft | 511 kts | 71° |
| 2026-05-07 16:14 | 42.46279 | 14.69550 | 35992 ft | 510 kts | 71° |
| 2026-05-07 16:15 | 42.48418 | 14.78697 | 35988 ft | 509 kts | 71° |
| 2026-05-07 16:15 | 42.50539 | 14.87804 | 35989 ft | 508 kts | 71° |
| 2026-05-07 16:16 | 42.52660 | 14.96939 | 35993 ft | 507 kts | 71° |
| 2026-05-07 16:16 | 42.54770 | 15.06058 | 35993 ft | 506 kts | 72° |
| 2026-05-07 16:17 | 42.56860 | 15.15135 | 35991 ft | 505 kts | 72° |
| 2026-05-07 16:17 | 42.58941 | 15.24219 | 35994 ft | 504 kts | 72° |
| 2026-05-07 16:18 | 42.61029 | 15.33365 | 35989 ft | 504 kts | 72° |
| 2026-05-07 16:18 | 42.63084 | 15.42405 | 35995 ft | 503 kts | 72° |
| 2026-05-07 16:19 | 42.65144 | 15.51505 | 35994 ft | 502 kts | 72° |
| 2026-05-07 16:19 | 42.67188 | 15.60582 | 35999 ft | 501 kts | 72° |
| 2026-05-07 16:20 | 42.69216 | 15.69599 | 36000 ft | 501 kts | 72° |
| 2026-05-07 16:20 | 42.70925 | 15.78770 | 36003 ft | 500 kts | 80° |
| 2026-05-07 16:21 | 42.72011 | 15.88125 | 36004 ft | 500 kts | 82° |
| 2026-05-07 16:21 | 42.73080 | 15.97420 | 36002 ft | 499 kts | 81° |
| 2026-05-07 16:22 | 42.74177 | 16.06754 | 36007 ft | 499 kts | 81° |
| 2026-05-07 16:22 | 42.75271 | 16.16092 | 36011 ft | 499 kts | 81° |
| 2026-05-07 16:23 | 42.76361 | 16.25444 | 36013 ft | 499 kts | 81° |
| 2026-05-07 16:23 | 42.77427 | 16.34707 | 36022 ft | 498 kts | 81° |
| 2026-05-07 16:24 | 42.78494 | 16.44042 | 36027 ft | 497 kts | 81° |
| 2026-05-07 16:24 | 42.79542 | 16.53330 | 36025 ft | 497 kts | 82° |
| 2026-05-07 16:25 | 42.80582 | 16.62657 | 36028 ft | 496 kts | 81° |
| 2026-05-07 16:25 | 42.81637 | 16.71937 | 36038 ft | 495 kts | 81° |
| 2026-05-07 16:26 | 42.82672 | 16.81213 | 36041 ft | 494 kts | 81° |
| 2026-05-07 16:26 | 42.83690 | 16.90475 | 36038 ft | 493 kts | 81° |
| 2026-05-07 16:27 | 42.84700 | 16.99713 | 36038 ft | 492 kts | 82° |
| 2026-05-07 16:27 | 42.85701 | 17.08942 | 36058 ft | 491 kts | 82° |
| 2026-05-07 16:28 | 42.86684 | 17.18156 | 36059 ft | 490 kts | 82° |
| 2026-05-07 16:28 | 42.87666 | 17.27298 | 36039 ft | 489 kts | 82° |
| 2026-05-07 16:29 | 42.88638 | 17.36472 | 36063 ft | 489 kts | 82° |
| 2026-05-07 16:29 | 42.89604 | 17.45651 | 36066 ft | 487 kts | 82° |
| 2026-05-07 16:30 | 42.90600 | 17.54742 | 36062 ft | 486 kts | 78° |
| 2026-05-07 16:30 | 42.92076 | 17.63726 | 36065 ft | 485 kts | 77° |
| 2026-05-07 16:31 | 42.93595 | 17.72750 | 36065 ft | 484 kts | 77° |
| 2026-05-07 16:31 | 42.95080 | 17.81718 | 36067 ft | 483 kts | 77° |
| 2026-05-07 16:32 | 42.96561 | 17.90653 | 36069 ft | 482 kts | 77° |
| 2026-05-07 16:32 | 42.98026 | 17.99590 | 36077 ft | 482 kts | 77° |
| 2026-05-07 16:33 | 42.99483 | 18.08468 | 36076 ft | 481 kts | 77° |
| 2026-05-07 16:33 | 43.00941 | 18.17405 | 36075 ft | 481 kts | 77° |
| 2026-05-07 16:34 | 43.02378 | 18.26281 | 36081 ft | 480 kts | 77° |
| 2026-05-07 16:34 | 43.03815 | 18.35209 | 36088 ft | 480 kts | 77° |
| 2026-05-07 16:35 | 43.05245 | 18.44142 | 36085 ft | 479 kts | 77° |
| 2026-05-07 16:35 | 43.06660 | 18.53061 | 36079 ft | 479 kts | 77° |
| 2026-05-07 16:36 | 43.08070 | 18.61921 | 36080 ft | 478 kts | 77° |
| 2026-05-07 16:36 | 43.09478 | 18.70824 | 36072 ft | 478 kts | 77° |
| 2026-05-07 16:37 | 43.10870 | 18.79712 | 36070 ft | 477 kts | 77° |
| 2026-05-07 16:37 | 43.12258 | 18.88608 | 36077 ft | 476 kts | 77° |
| 2026-05-07 16:38 | 43.13625 | 18.97418 | 36067 ft | 475 kts | 77° |
| 2026-05-07 16:38 | 43.14993 | 19.06286 | 36065 ft | 474 kts | 77° |
| 2026-05-07 16:39 | 43.16344 | 19.15127 | 36063 ft | 473 kts | 77° |
| 2026-05-07 16:39 | 43.17694 | 19.23947 | 36052 ft | 472 kts | 77° |
| 2026-05-07 16:40 | 43.18731 | 19.32780 | 36059 ft | 471 kts | 84° |
| 2026-05-07 16:40 | 43.19343 | 19.41721 | 36056 ft | 471 kts | 84° |
| 2026-05-07 16:41 | 43.19941 | 19.50628 | 36093 ft | 470 kts | 84° |
| 2026-05-07 16:41 | 43.20245 | 19.55093 | 36278 ft | 471 kts | 84° |
| 2026-05-07 16:41 | 43.20548 | 19.59561 | 36547 ft | 470 kts | 84° |
| 2026-05-07 16:41 | 43.20848 | 19.64030 | 36797 ft | 469 kts | 84° |
| 2026-05-07 16:42 | 43.21145 | 19.68498 | 37035 ft | 469 kts | 84° |
| 2026-05-07 16:42 | 43.21733 | 19.77427 | 37086 ft | 469 kts | 84° |
| 2026-05-07 16:43 | 43.22313 | 19.86289 | 37054 ft | 468 kts | 84° |
| 2026-05-07 16:43 | 43.22882 | 19.95187 | 37047 ft | 468 kts | 85° |
| 2026-05-07 16:44 | 43.23444 | 20.04104 | 37048 ft | 468 kts | 85° |
| 2026-05-07 16:44 | 43.24008 | 20.13004 | 37049 ft | 467 kts | 84° |
| 2026-05-07 16:45 | 43.24563 | 20.21861 | 37054 ft | 466 kts | 85° |
| 2026-05-07 16:45 | 43.25104 | 20.30702 | 37054 ft | 466 kts | 85° |
| 2026-05-07 16:46 | 43.25638 | 20.39517 | 37056 ft | 466 kts | 85° |
| 2026-05-07 16:46 | 43.26171 | 20.48423 | 37060 ft | 465 kts | 85° |
| 2026-05-07 16:47 | 43.26690 | 20.57222 | 37058 ft | 464 kts | 85° |
| 2026-05-07 16:47 | 43.27205 | 20.66068 | 37068 ft | 464 kts | 85° |
| 2026-05-07 16:48 | 43.27709 | 20.74851 | 37067 ft | 464 kts | 85° |
| 2026-05-07 16:48 | 43.28209 | 20.83697 | 37065 ft | 464 kts | 85° |
| 2026-05-07 16:49 | 43.28624 | 20.91100 | 37068 ft | 463 kts | 85° |
| 2026-05-07 16:49 | 43.29107 | 20.99866 | 37062 ft | 463 kts | 85° |
| 2026-05-07 16:50 | 43.29588 | 21.08697 | 37057 ft | 462 kts | 85° |
| 2026-05-07 16:50 | 43.30059 | 21.17514 | 37060 ft | 462 kts | 85° |
| 2026-05-07 16:51 | 43.30501 | 21.26319 | 37055 ft | 462 kts | 88° |
| 2026-05-07 16:51 | 43.30328 | 21.30704 | 37053 ft | 462 kts | 99° |
| 2026-05-07 16:51 | 43.29598 | 21.35007 | 37063 ft | 461 kts | 107° |
| 2026-05-07 16:52 | 43.27741 | 21.43398 | 37060 ft | 461 kts | 108° |
| 2026-05-07 16:52 | 43.25881 | 21.51837 | 37057 ft | 461 kts | 107° |
| 2026-05-07 16:53 | 43.24048 | 21.60271 | 37054 ft | 461 kts | 107° |
| 2026-05-07 16:53 | 43.22215 | 21.68669 | 37054 ft | 460 kts | 107° |
| 2026-05-07 16:54 | 43.20370 | 21.77084 | 37047 ft | 460 kts | 107° |
| 2026-05-07 16:54 | 43.18523 | 21.85468 | 37051 ft | 460 kts | 107° |
| 2026-05-07 16:55 | 43.16664 | 21.93863 | 37061 ft | 460 kts | 107° |
| 2026-05-07 16:55 | 43.14813 | 22.02220 | 37059 ft | 461 kts | 107° |
| 2026-05-07 16:56 | 43.12947 | 22.10607 | 37058 ft | 460 kts | 107° |
| 2026-05-07 16:56 | 43.10126 | 22.23197 | 37084 ft | 460 kts | 107° |
| 2026-05-07 16:57 | 43.08240 | 22.31593 | 37083 ft | 461 kts | 107° |
| 2026-05-07 16:57 | 43.06347 | 22.39970 | 37087 ft | 461 kts | 107° |
| 2026-05-07 16:58 | 43.04448 | 22.48343 | 37090 ft | 461 kts | 107° |
| 2026-05-07 16:58 | 43.02553 | 22.56677 | 37092 ft | 461 kts | 107° |
| 2026-05-07 16:59 | 43.00640 | 22.65051 | 37092 ft | 461 kts | 107° |
| 2026-05-07 16:59 | 42.98824 | 22.73458 | 37087 ft | 461 kts | 101° |
| 2026-05-07 17:00 | 42.98458 | 22.77813 | 37091 ft | 460 kts | 89° |
| 2026-05-07 17:00 | 42.98723 | 22.82145 | 37094 ft | 457 kts | 77° |
| 2026-05-07 17:00 | 42.99606 | 22.86260 | 37101 ft | 453 kts | 64° |
| 2026-05-07 17:00 | 43.00968 | 22.90150 | 37105 ft | 451 kts | 59° |
| 2026-05-07 17:01 | 43.03828 | 22.97722 | 37098 ft | 450 kts | 60° |
| 2026-05-07 17:01 | 43.06651 | 23.05372 | 37093 ft | 450 kts | 60° |
| 2026-05-07 17:02 | 43.09446 | 23.13065 | 37095 ft | 449 kts | 60° |
| 2026-05-07 17:02 | 43.12206 | 23.20683 | 37095 ft | 449 kts | 60° |
| 2026-05-07 17:03 | 43.14968 | 23.28347 | 37086 ft | 448 kts | 60° |
| 2026-05-07 17:03 | 43.17727 | 23.36006 | 37076 ft | 448 kts | 60° |
| 2026-05-07 17:04 | 43.20486 | 23.43671 | 37080 ft | 447 kts | 60° |
| 2026-05-07 17:04 | 43.23219 | 23.51278 | 37078 ft | 447 kts | 60° |
| 2026-05-07 17:05 | 43.25970 | 23.58958 | 37073 ft | 450 kts | 60° |
| 2026-05-07 17:05 | 43.28731 | 23.66695 | 37063 ft | 450 kts | 60° |
| 2026-05-07 17:06 | 43.31468 | 23.74369 | 37064 ft | 450 kts | 60° |
| 2026-05-07 17:06 | 43.34218 | 23.82118 | 37058 ft | 450 kts | 60° |
| 2026-05-07 17:07 | 43.36953 | 23.89853 | 37056 ft | 450 kts | 60° |
| 2026-05-07 17:07 | 43.39677 | 23.97565 | 37057 ft | 450 kts | 60° |
| 2026-05-07 17:08 | 43.42406 | 24.05334 | 37059 ft | 450 kts | 60° |
| 2026-05-07 17:08 | 43.43767 | 24.09213 | 36934 ft | 448 kts | 60° |
| 2026-05-07 17:08 | 43.45100 | 24.13011 | 36581 ft | 447 kts | 60° |
| 2026-05-07 17:09 | 43.46451 | 24.16871 | 36196 ft | 446 kts | 60° |
| 2026-05-07 17:09 | 43.47793 | 24.20712 | 35662 ft | 442 kts | 60° |
| 2026-05-07 17:09 | 43.49127 | 24.24531 | 35122 ft | 440 kts | 60° |
| 2026-05-07 17:09 | 43.50434 | 24.28278 | 34556 ft | 439 kts | 60° |
| 2026-05-07 17:10 | 43.51758 | 24.32074 | 33961 ft | 436 kts | 60° |
| 2026-05-07 17:10 | 43.53074 | 24.35853 | 33272 ft | 435 kts | 60° |
| 2026-05-07 17:10 | 43.54359 | 24.39557 | 32803 ft | 428 kts | 60° |
| 2026-05-07 17:10 | 43.55640 | 24.43257 | 32295 ft | 424 kts | 60° |
| 2026-05-07 17:11 | 43.56912 | 24.46926 | 31732 ft | 422 kts | 60° |
| 2026-05-07 17:11 | 43.58173 | 24.50571 | 31172 ft | 421 kts | 60° |
| 2026-05-07 17:11 | 43.59416 | 24.54174 | 30634 ft | 418 kts | 60° |
| 2026-05-07 17:11 | 43.60661 | 24.57788 | 30108 ft | 416 kts | 60° |
| 2026-05-07 17:12 | 43.61905 | 24.61402 | 29479 ft | 415 kts | 60° |
| 2026-05-07 17:12 | 43.63137 | 24.64986 | 28896 ft | 412 kts | 61° |
| 2026-05-07 17:12 | 43.64363 | 24.68552 | 28341 ft | 409 kts | 61° |
| 2026-05-07 17:12 | 43.65581 | 24.72099 | 27812 ft | 406 kts | 61° |
| 2026-05-07 17:13 | 43.66782 | 24.75602 | 27304 ft | 402 kts | 61° |
| 2026-05-07 17:13 | 43.67981 | 24.79106 | 26777 ft | 400 kts | 61° |
| 2026-05-07 17:13 | 43.69168 | 24.82581 | 26249 ft | 398 kts | 62° |
| 2026-05-07 17:13 | 43.70477 | 24.85842 | 25757 ft | 391 kts | 52° |
| 2026-05-07 17:14 | 43.72134 | 24.88800 | 25281 ft | 386 kts | 48° |
| 2026-05-07 17:14 | 43.73823 | 24.91681 | 24788 ft | 384 kts | 48° |
| 2026-05-07 17:14 | 43.75504 | 24.94552 | 24278 ft | 381 kts | 49° |
| 2026-05-07 17:14 | 43.77159 | 24.97398 | 23792 ft | 377 kts | 49° |
| 2026-05-07 17:15 | 43.78793 | 25.00220 | 23248 ft | 373 kts | 49° |
| 2026-05-07 17:15 | 43.80386 | 25.02976 | 22688 ft | 369 kts | 49° |
| 2026-05-07 17:15 | 43.81979 | 25.05739 | 22021 ft | 369 kts | 50° |
| 2026-05-07 17:15 | 43.83591 | 25.08536 | 21322 ft | 369 kts | 50° |
| 2026-05-07 17:16 | 43.85189 | 25.11313 | 20627 ft | 370 kts | 50° |
| 2026-05-07 17:16 | 43.86992 | 25.13853 | 20018 ft | 366 kts | 37° |
| 2026-05-07 17:16 | 43.89033 | 25.15887 | 19657 ft | 357 kts | 33° |
| 2026-05-07 17:16 | 43.91064 | 25.17803 | 19094 ft | 356 kts | 33° |
| 2026-05-07 17:17 | 43.93100 | 25.19748 | 18523 ft | 355 kts | 34° |
| 2026-05-07 17:17 | 43.95123 | 25.21707 | 17929 ft | 353 kts | 34° |
| 2026-05-07 17:17 | 43.97120 | 25.23666 | 17398 ft | 349 kts | 34° |
| 2026-05-07 17:17 | 43.99100 | 25.25613 | 16807 ft | 347 kts | 34° |
| 2026-05-07 17:18 | 44.01066 | 25.27552 | 16231 ft | 345 kts | 34° |
| 2026-05-07 17:18 | 44.02990 | 25.29452 | 15737 ft | 341 kts | 34° |
| 2026-05-07 17:18 | 44.04924 | 25.31366 | 15195 ft | 339 kts | 34° |
| 2026-05-07 17:18 | 44.06840 | 25.33263 | 14660 ft | 337 kts | 34° |
| 2026-05-07 17:19 | 44.08749 | 25.35157 | 14150 ft | 335 kts | 34° |
| 2026-05-07 17:19 | 44.10631 | 25.37025 | 13669 ft | 332 kts | 34° |
| 2026-05-07 17:19 | 44.12508 | 25.38885 | 13090 ft | 330 kts | 34° |
| 2026-05-07 17:19 | 44.14367 | 25.40730 | 12572 ft | 327 kts | 34° |
| 2026-05-07 17:20 | 44.16211 | 25.42562 | 12038 ft | 324 kts | 35° |
| 2026-05-07 17:20 | 44.18046 | 25.44389 | 11496 ft | 322 kts | 35° |
| 2026-05-07 17:20 | 44.19860 | 25.46196 | 10982 ft | 319 kts | 35° |
| 2026-05-07 17:20 | 44.21642 | 25.47969 | 10487 ft | 317 kts | 35° |
| 2026-05-07 17:21 | 44.23425 | 25.49745 | 9986 ft | 315 kts | 35° |
| 2026-05-07 17:21 | 44.25198 | 25.51514 | 9613 ft | 307 kts | 35° |
| 2026-05-07 17:21 | 44.26904 | 25.53217 | 9376 ft | 295 kts | 35° |
| 2026-05-07 17:21 | 44.28560 | 25.54874 | 8986 ft | 291 kts | 35° |
| 2026-05-07 17:22 | 44.30206 | 25.56518 | 8478 ft | 290 kts | 35° |
| 2026-05-07 17:22 | 44.31846 | 25.58158 | 8008 ft | 289 kts | 34° |
| 2026-05-07 17:22 | 44.33459 | 25.59772 | 7575 ft | 287 kts | 35° |
| 2026-05-07 17:22 | 44.35092 | 25.61410 | 7100 ft | 287 kts | 35° |
| 2026-05-07 17:23 | 44.36702 | 25.63025 | 6692 ft | 284 kts | 35° |
| 2026-05-07 17:23 | 44.38302 | 25.64631 | 6258 ft | 283 kts | 34° |
| 2026-05-07 17:23 | 44.39875 | 25.66210 | 5810 ft | 281 kts | 35° |
| 2026-05-07 17:23 | 44.41467 | 25.67810 | 5382 ft | 279 kts | 35° |
| 2026-05-07 17:24 | 44.43042 | 25.69394 | 4958 ft | 278 kts | 35° |
| 2026-05-07 17:24 | 44.44603 | 25.70965 | 4532 ft | 276 kts | 35° |
| 2026-05-07 17:24 | 44.46002 | 25.72373 | 4107 ft | 277 kts | 36° |
| 2026-05-07 17:24 | 44.47540 | 25.73922 | 3759 ft | 273 kts | 36° |
| 2026-05-07 17:25 | 44.49070 | 25.75468 | 3452 ft | 266 kts | 36° |
| 2026-05-07 17:25 | 44.50546 | 25.76965 | 3279 ft | 256 kts | 37° |
| 2026-05-07 17:25 | 44.51958 | 25.78395 | 3134 ft | 244 kts | 37° |
| 2026-05-07 17:25 | 44.53304 | 25.79758 | 3006 ft | 233 kts | 36° |
| 2026-05-07 17:26 | 44.54591 | 25.81071 | 2837 ft | 223 kts | 39° |
| 2026-05-07 17:26 | 44.55573 | 25.82638 | 2650 ft | 208 kts | 68° |
| 2026-05-07 17:26 | 44.55939 | 25.84507 | 2495 ft | 187 kts | 84° |
| 2026-05-07 17:26 | 44.55984 | 25.86164 | 2461 ft | 161 kts | 87° |
| 2026-05-07 17:27 | 44.56089 | 25.87677 | 2485 ft | 149 kts | 87° |
| 2026-05-07 17:27 | 44.56188 | 25.89035 | 2486 ft | 137 kts | 87° |
| 2026-05-07 17:27 | 44.56287 | 25.90362 | 2486 ft | 136 kts | 86° |
| 2026-05-07 17:27 | 44.56387 | 25.91684 | 2489 ft | 137 kts | 86° |
| 2026-05-07 17:28 | 44.56488 | 25.93015 | 2460 ft | 137 kts | 86° |
| 2026-05-07 17:28 | 44.56589 | 25.94336 | 2310 ft | 136 kts | 86° |
| 2026-05-07 17:28 | 44.56655 | 25.95210 | 2187 ft | 135 kts | 86° |
| 2026-05-07 17:28 | 44.56754 | 25.96520 | 2009 ft | 136 kts | 86° |
| 2026-05-07 17:29 | 44.56853 | 25.97828 | 1827 ft | 134 kts | 86° |
| 2026-05-07 17:29 | 44.56951 | 25.99127 | 1649 ft | 134 kts | 86° |
| 2026-05-07 17:29 | 44.57081 | 26.00841 | 1410 ft | 134 kts | 86° |
| 2026-05-07 17:29 | 44.57147 | 26.01706 | 1290 ft | 133 kts | 86° |
| 2026-05-07 17:30 | 44.57245 | 26.02992 | 1108 ft | 132 kts | 85° |
| 2026-05-07 17:30 | 44.57341 | 26.04264 | 935 ft | 131 kts | 85° |
| 2026-05-07 17:30 | 44.57438 | 26.05535 | 757 ft | 130 kts | 84° |
| 2026-05-07 17:30 | 44.57538 | 26.06794 | 597 ft | 130 kts | 84° |
| 2026-05-07 17:31 | 44.57639 | 26.08039 | 401 ft | 129 kts | 83° |
| 2026-05-07 17:31 | 44.57721 | 26.09226 | 324 ft | 106 kts | 78° |
| 2026-05-07 17:31 | 44.57786 | 26.10053 | 325 ft | 69 kts | 84° |
| 2026-05-07 17:31 | 44.57821 | 26.10540 | 326 ft | 31 kts | 82° |
| 2026-05-07 17:32 | 44.57831 | 26.10770 | 326 ft | 10 kts | 94° |
| 2026-05-07 17:32 | 44.57825 | 26.10877 | 325 ft | 12 kts | 95° |
| 2026-05-07 17:32 | 44.57806 | 26.11002 | 323 ft | 14 kts | 109° |
| 2026-05-07 17:32 | 44.57767 | 26.11113 | 323 ft | 11 kts | 117° |
| 2026-05-07 17:33 | 44.57707 | 26.11135 | 326 ft | 10 kts | 216° |
| 2026-05-07 17:33 | 44.57686 | 26.11034 | 326 ft | 13 kts | 265° |
| 2026-05-07 17:33 | 44.57676 | 26.10900 | 326 ft | 15 kts | 264° |
| 2026-05-07 17:33 | 44.57665 | 26.10755 | 326 ft | 14 kts | 264° |
| 2026-05-07 17:34 | 44.57658 | 26.10648 | 326 ft | 10 kts | 264° |
| 2026-05-07 17:34 | 44.57650 | 26.10537 | 324 ft | 13 kts | 264° |
| 2026-05-07 17:34 | 44.57639 | 26.10400 | 322 ft | 15 kts | 264° |
| 2026-05-07 17:34 | 44.57629 | 26.10264 | 326 ft | 14 kts | 264° |
| 2026-05-07 17:35 | 44.57618 | 26.10123 | 326 ft | 12 kts | 264° |
| 2026-05-07 17:35 | 44.57609 | 26.10000 | 324 ft | 13 kts | 264° |
| 2026-05-07 17:35 | 44.57599 | 26.09861 | 326 ft | 15 kts | 264° |
| 2026-05-07 17:35 | 44.57587 | 26.09707 | 326 ft | 16 kts | 264° |
| 2026-05-07 17:36 | 44.57575 | 26.09546 | 326 ft | 17 kts | 264° |
| 2026-05-07 17:36 | 44.57561 | 26.09374 | 326 ft | 18 kts | 264° |
| 2026-05-07 17:36 | 44.57551 | 26.09231 | 326 ft | 15 kts | 264° |
| 2026-05-07 17:36 | 44.57540 | 26.09082 | 326 ft | 15 kts | 264° |
| 2026-05-07 17:37 | 44.57529 | 26.08933 | 326 ft | 15 kts | 263° |
| 2026-05-07 17:37 | 44.57519 | 26.08801 | 326 ft | 9 kts | 264° |
| 2026-05-07 17:37 | 44.57512 | 26.08708 | 326 ft | 10 kts | 263° |
| 2026-05-07 17:37 | 44.57504 | 26.08601 | 326 ft | 12 kts | 264° |
| 2026-05-07 17:38 | 44.57475 | 26.08493 | 326 ft | 13 kts | 220° |
| 2026-05-07 17:38 | 44.57385 | 26.08483 | 326 ft | 14 kts | 175° |
| 2026-05-07 17:38 | 44.57283 | 26.08497 | 326 ft | 15 kts | 174° |
| 2026-05-07 17:38 | 44.57175 | 26.08512 | 324 ft | 13 kts | 173° |
| 2026-05-07 17:39 | 44.57081 | 26.08525 | 326 ft | 14 kts | 174° |
| 2026-05-07 17:39 | 44.57001 | 26.08537 | 326 ft | 2 kts | 175° |
| 2026-05-07 17:39 | 44.56982 | 26.08541 | 326 ft | 4 kts | 172° |
| 2026-05-07 17:39 | 44.56952 | 26.08545 | 326 ft | 5 kts | 181° |
| 2026-05-07 17:40 | 44.56915 | 26.08530 | 326 ft | 6 kts | 214° |
| 2026-05-07 17:40 | 44.56895 | 26.08471 | 326 ft | 8 kts | 279° |
| 2026-05-07 17:40 | 44.56911 | 26.08420 | 324 ft | 6 kts | 313° |
| 2026-05-07 17:40 | 44.56948 | 26.08402 | 326 ft | 2 kts | 20° |
| 2026-05-07 17:41 | 44.56970 | 26.08398 | 326 ft | 4 kts | 347° |
| 2026-05-07 17:41 | 44.57001 | 26.08389 | 326 ft | 5 kts | 351° |
| 2026-05-07 17:41 | 44.57042 | 26.08383 | 326 ft | 7 kts | 355° |
| 2026-05-07 17:41 | 44.57093 | 26.08376 | 326 ft | 8 kts | 354° |
| 2026-05-07 17:42 | 44.57146 | 26.08369 | 325 ft | 0 kts | 355° |
| 2026-05-07 17:45 | 44.57147 | 26.08368 | 325 ft | 1 kts | 355° |
| 2026-05-07 17:46 | 44.57158 | 26.08367 | 326 ft | 2 kts | 353° |
| 2026-05-07 17:46 | 44.57178 | 26.08363 | 326 ft | 3 kts | 353° |
| 2026-05-07 17:46 | 44.57180 | 26.08363 | 324 ft | 1 kts | 353° |
| 2026-05-07 17:46 | 44.57200 | 26.08355 | 326 ft | 4 kts | 334° |
| 2026-05-07 17:47 | 44.57216 | 26.08310 | 326 ft | 7 kts | 268° |
| 2026-05-07 17:47 | 44.57207 | 26.08236 | 324 ft | 8 kts | 262° |
| 2026-05-07 17:47 | 44.57200 | 26.08146 | 326 ft | 10 kts | 264° |
| 2026-05-07 17:47 | 44.57193 | 26.08046 | 324 ft | 9 kts | 264° |
| 2026-05-07 17:48 | 44.57186 | 26.07954 | 326 ft | 10 kts | 264° |
| 2026-05-07 17:48 | 44.57180 | 26.07892 | 326 ft | 6 kts | 246° |
| 2026-05-07 17:48 | 44.57164 | 26.07881 | 326 ft | 2 kts | 185° |
| 2026-05-07 17:48 | 44.57146 | 26.07880 | 326 ft | 2 kts | 177° |
| 2026-05-07 17:49 | 44.57131 | 26.07881 | 324 ft | 0 kts | 175° |
| 2026-05-07 17:49 | 44.57128 | 26.07882 | 324 ft | 1 kts | 174° |
| 2026-05-07 17:50 | 44.57124 | 26.07883 | 325 ft | 0 kts | 174° |
| 2026-05-07 17:50 | 44.57121 | 26.07883 | 326 ft | 0 kts | 174° |